sensor_id;sensor_type;location;lat;lon;timestamp;P1;durP1;ratioP1;P2;durP2;ratioP2
19341;SDS011;9807;48.258;12.690;2022-09-09T00:00:16;0.80;;;0.70;;
19341;SDS011;9807;48.258;12.690;2022-09-09T00:03:02;0.87;;;0.80;;
19341;SDS011;9807;48.258;12.690;2022-09-09T00:05:52;1.43;;;0.70;;
19341;SDS011;9807;48.258;12.690;2022-09-09T00:08:44;0.90;;;0.70;;
19341;SDS011;9807;48.258;12.690;2022-09-09T00:11:30;0.87;;;0.80;;
19341;SDS011;9807;48.258;12.690;2022-09-09T00:14:10;0.80;;;0.73;;
19341;SDS011;9807;48.258;12.690;2022-09-09T00:16:49;0.87;;;0.80;;
19341;SDS011;9807;48.258;12.690;2022-09-09T00:19:24;0.93;;;0.80;;
19341;SDS011;9807;48.258;12.690;2022-09-09T00:24:46;0.70;;;0.70;;
19341;SDS011;9807;48.258;12.690;2022-09-09T00:27:25;0.70;;;0.70;;
19341;SDS011;9807;48.258;12.690;2022-09-09T00:30:18;0.70;;;0.70;;
19341;SDS011;9807;48.258;12.690;2022-09-09T00:32:50;0.70;;;0.70;;
19341;SDS011;9807;48.258;12.690;2022-09-09T00:35:25;0.70;;;0.70;;
19341;SDS011;9807;48.258;12.690;2022-09-09T00:38:00;0.70;;;0.70;;
19341;SDS011;9807;48.258;12.690;2022-09-09T00:40:45;0.70;;;0.70;;
19341;SDS011;9807;48.258;12.690;2022-09-09T00:43:33;0.67;;;0.60;;
19341;SDS011;9807;48.258;12.690;2022-09-09T01:28:21;2.00;;;0.80;;
19341;SDS011;9807;48.258;12.690;2022-09-09T01:30:50;0.53;;;0.53;;
19341;SDS011;9807;48.258;12.690;2022-09-09T01:33:16;0.60;;;0.60;;
19341;SDS011;9807;48.258;12.690;2022-09-09T01:38:30;0.77;;;0.70;;
19341;SDS011;9807;48.258;12.690;2022-09-09T01:40:57;1.27;;;0.67;;
19341;SDS011;9807;48.258;12.690;2022-09-09T01:43:23;1.37;;;0.60;;
19341;SDS011;9807;48.258;12.690;2022-09-09T01:45:54;0.60;;;0.60;;
19341;SDS011;9807;48.258;12.690;2022-09-09T01:48:23;1.00;;;0.60;;
19341;SDS011;9807;48.258;12.690;2022-09-09T01:50:50;3.40;;;0.70;;
19341;SDS011;9807;48.258;12.690;2022-09-09T01:53:17;2.50;;;0.50;;
19341;SDS011;9807;48.258;12.690;2022-09-09T01:55:54;1.47;;;0.60;;
19341;SDS011;9807;48.258;12.690;2022-09-09T02:04:17;0.90;;;0.70;;
19341;SDS011;9807;48.258;12.690;2022-09-09T02:07:02;0.60;;;0.60;;
19341;SDS011;9807;48.258;12.690;2022-09-09T02:09:35;1.03;;;0.67;;
19341;SDS011;9807;48.258;12.690;2022-09-09T02:12:08;0.97;;;0.77;;
19341;SDS011;9807;48.258;12.690;2022-09-09T02:14:42;1.33;;;0.90;;
19341;SDS011;9807;48.258;12.690;2022-09-09T02:17:15;2.50;;;0.57;;
19341;SDS011;9807;48.258;12.690;2022-09-09T02:19:49;0.60;;;0.60;;
19341;SDS011;9807;48.258;12.690;2022-09-09T02:22:22;0.57;;;0.50;;
19341;SDS011;9807;48.258;12.690;2022-09-09T02:24:56;2.57;;;1.20;;
19341;SDS011;9807;48.258;12.690;2022-09-09T02:27:24;1.03;;;0.70;;
19341;SDS011;9807;48.258;12.690;2022-09-09T02:29:50;2.17;;;1.47;;
19341;SDS011;9807;48.258;12.690;2022-09-09T02:32:19;0.80;;;0.80;;
19341;SDS011;9807;48.258;12.690;2022-09-09T02:34:47;1.07;;;0.70;;
19341;SDS011;9807;48.258;12.690;2022-09-09T02:37:21;2.37;;;0.60;;
19341;SDS011;9807;48.258;12.690;2022-09-09T02:39:56;0.63;;;0.60;;
19341;SDS011;9807;48.258;12.690;2022-09-09T02:42:21;2.53;;;0.73;;
19341;SDS011;9807;48.258;12.690;2022-09-09T02:44:47;2.23;;;0.80;;
19341;SDS011;9807;48.258;12.690;2022-09-09T02:47:16;3.20;;;1.00;;
19341;SDS011;9807;48.258;12.690;2022-09-09T02:50:11;2.40;;;0.90;;
19341;SDS011;9807;48.258;12.690;2022-09-09T02:55:16;0.80;;;0.80;;
19341;SDS011;9807;48.258;12.690;2022-09-09T02:58:05;4.30;;;1.00;;
19341;SDS011;9807;48.258;12.690;2022-09-09T03:00:34;1.03;;;0.80;;
19341;SDS011;9807;48.258;12.690;2022-09-09T03:03:02;0.60;;;0.60;;
19341;SDS011;9807;48.258;12.690;2022-09-09T03:05:29;2.27;;;0.60;;
19341;SDS011;9807;48.258;12.690;2022-09-09T03:07:55;1.53;;;0.77;;
19341;SDS011;9807;48.258;12.690;2022-09-09T03:10:20;2.77;;;0.67;;
19341;SDS011;9807;48.258;12.690;2022-09-09T03:12:46;0.70;;;0.70;;
19341;SDS011;9807;48.258;12.690;2022-09-09T03:15:15;0.70;;;0.70;;
19341;SDS011;9807;48.258;12.690;2022-09-09T03:17:41;3.30;;;1.10;;
19341;SDS011;9807;48.258;12.690;2022-09-09T03:20:07;2.50;;;1.20;;
19341;SDS011;9807;48.258;12.690;2022-09-09T03:22:35;3.33;;;1.30;;
19341;SDS011;9807;48.258;12.690;2022-09-09T03:25:01;1.80;;;0.97;;
19341;SDS011;9807;48.258;12.690;2022-09-09T03:27:31;1.00;;;0.90;;
19341;SDS011;9807;48.258;12.690;2022-09-09T03:30:00;0.70;;;0.70;;
19341;SDS011;9807;48.258;12.690;2022-09-09T03:32:31;1.73;;;0.60;;
19341;SDS011;9807;48.258;12.690;2022-09-09T03:34:57;0.70;;;0.70;;
19341;SDS011;9807;48.258;12.690;2022-09-09T03:37:23;0.80;;;0.80;;
19341;SDS011;9807;48.258;12.690;2022-09-09T03:39:48;0.90;;;0.80;;
19341;SDS011;9807;48.258;12.690;2022-09-09T03:42:17;3.30;;;1.20;;
19341;SDS011;9807;48.258;12.690;2022-09-09T03:44:44;1.43;;;1.20;;
19341;SDS011;9807;48.258;12.690;2022-09-09T03:47:13;0.70;;;0.70;;
19341;SDS011;9807;48.258;12.690;2022-09-09T03:49:38;1.20;;;0.73;;
19341;SDS011;9807;48.258;12.690;2022-09-09T03:52:08;2.57;;;0.70;;
19341;SDS011;9807;48.258;12.690;2022-09-09T03:54:34;1.47;;;0.77;;
19341;SDS011;9807;48.258;12.690;2022-09-09T03:57:00;2.73;;;0.90;;
19341;SDS011;9807;48.258;12.690;2022-09-09T03:59:28;0.97;;;0.50;;
19341;SDS011;9807;48.258;12.690;2022-09-09T04:01:55;0.60;;;0.60;;
19341;SDS011;9807;48.258;12.690;2022-09-09T04:04:22;2.03;;;0.70;;
19341;SDS011;9807;48.258;12.690;2022-09-09T04:06:48;0.53;;;0.53;;
19341;SDS011;9807;48.258;12.690;2022-09-09T04:09:14;0.97;;;0.80;;
19341;SDS011;9807;48.258;12.690;2022-09-09T04:11:40;2.40;;;0.80;;
19341;SDS011;9807;48.258;12.690;2022-09-09T04:14:06;0.80;;;0.73;;
19341;SDS011;9807;48.258;12.690;2022-09-09T04:16:32;0.70;;;0.70;;
19341;SDS011;9807;48.258;12.690;2022-09-09T04:19:00;1.23;;;0.80;;
19341;SDS011;9807;48.258;12.690;2022-09-09T04:21:27;0.70;;;0.70;;
19341;SDS011;9807;48.258;12.690;2022-09-09T04:23:55;0.70;;;0.70;;
19341;SDS011;9807;48.258;12.690;2022-09-09T04:26:21;0.87;;;0.73;;
19341;SDS011;9807;48.258;12.690;2022-09-09T04:28:47;2.93;;;0.73;;
19341;SDS011;9807;48.258;12.690;2022-09-09T04:31:22;2.37;;;0.70;;
19341;SDS011;9807;48.258;12.690;2022-09-09T04:33:49;1.23;;;1.00;;
19341;SDS011;9807;48.258;12.690;2022-09-09T04:36:15;2.13;;;0.70;;
19341;SDS011;9807;48.258;12.690;2022-09-09T04:38:41;2.10;;;1.00;;
19341;SDS011;9807;48.258;12.690;2022-09-09T04:41:09;0.93;;;0.80;;
19341;SDS011;9807;48.258;12.690;2022-09-09T04:43:36;0.93;;;0.90;;
19341;SDS011;9807;48.258;12.690;2022-09-09T04:46:02;1.07;;;0.60;;
19341;SDS011;9807;48.258;12.690;2022-09-09T04:48:34;1.10;;;0.90;;
19341;SDS011;9807;48.258;12.690;2022-09-09T04:51:06;2.30;;;1.00;;
19341;SDS011;9807;48.258;12.690;2022-09-09T04:53:35;1.63;;;0.70;;
19341;SDS011;9807;48.258;12.690;2022-09-09T04:56:01;0.97;;;0.67;;
19341;SDS011;9807;48.258;12.690;2022-09-09T04:58:32;0.67;;;0.67;;
19341;SDS011;9807;48.258;12.690;2022-09-09T05:01:04;1.03;;;0.77;;
19341;SDS011;9807;48.258;12.690;2022-09-09T05:03:31;0.77;;;0.70;;
19341;SDS011;9807;48.258;12.690;2022-09-09T05:06:07;0.80;;;0.70;;
19341;SDS011;9807;48.258;12.690;2022-09-09T05:08:36;0.90;;;0.80;;
19341;SDS011;9807;48.258;12.690;2022-09-09T05:11:15;2.10;;;0.60;;
19341;SDS011;9807;48.258;12.690;2022-09-09T05:13:46;2.13;;;1.00;;
19341;SDS011;9807;48.258;12.690;2022-09-09T05:16:12;2.83;;;0.87;;
19341;SDS011;9807;48.258;12.690;2022-09-09T05:18:39;1.47;;;1.37;;
19341;SDS011;9807;48.258;12.690;2022-09-09T05:21:06;0.70;;;0.70;;
19341;SDS011;9807;48.258;12.690;2022-09-09T05:23:35;2.50;;;0.87;;
19341;SDS011;9807;48.258;12.690;2022-09-09T05:26:02;1.00;;;0.80;;
19341;SDS011;9807;48.258;12.690;2022-09-09T05:28:31;3.73;;;1.00;;
19341;SDS011;9807;48.258;12.690;2022-09-09T05:31:01;2.83;;;1.00;;
19341;SDS011;9807;48.258;12.690;2022-09-09T05:33:29;2.43;;;1.10;;
19341;SDS011;9807;48.258;12.690;2022-09-09T05:35:57;2.40;;;0.90;;
19341;SDS011;9807;48.258;12.690;2022-09-09T05:38:28;1.33;;;0.80;;
19341;SDS011;9807;48.258;12.690;2022-09-09T05:40:54;3.13;;;0.87;;
19341;SDS011;9807;48.258;12.690;2022-09-09T05:43:22;0.87;;;0.87;;
19341;SDS011;9807;48.258;12.690;2022-09-09T05:45:48;1.03;;;0.90;;
19341;SDS011;9807;48.258;12.690;2022-09-09T05:48:27;1.43;;;0.80;;
19341;SDS011;9807;48.258;12.690;2022-09-09T05:50:55;1.40;;;0.80;;
19341;SDS011;9807;48.258;12.690;2022-09-09T05:53:21;1.83;;;1.00;;
19341;SDS011;9807;48.258;12.690;2022-09-09T05:55:47;0.80;;;0.80;;
19341;SDS011;9807;48.258;12.690;2022-09-09T05:58:13;2.53;;;1.20;;
19341;SDS011;9807;48.258;12.690;2022-09-09T06:00:40;1.20;;;0.97;;
19341;SDS011;9807;48.258;12.690;2022-09-09T06:03:06;5.93;;;1.20;;
19341;SDS011;9807;48.258;12.690;2022-09-09T06:05:31;1.27;;;1.00;;
19341;SDS011;9807;48.258;12.690;2022-09-09T06:07:57;2.00;;;1.07;;
19341;SDS011;9807;48.258;12.690;2022-09-09T06:10:23;1.23;;;0.90;;
19341;SDS011;9807;48.258;12.690;2022-09-09T06:12:55;3.70;;;1.00;;
19341;SDS011;9807;48.258;12.690;2022-09-09T06:15:20;3.57;;;1.70;;
19341;SDS011;9807;48.258;12.690;2022-09-09T06:17:46;1.33;;;1.10;;
19341;SDS011;9807;48.258;12.690;2022-09-09T06:20:12;1.30;;;0.83;;
19341;SDS011;9807;48.258;12.690;2022-09-09T06:22:41;1.80;;;1.00;;
19341;SDS011;9807;48.258;12.690;2022-09-09T06:25:07;4.63;;;1.40;;
19341;SDS011;9807;48.258;12.690;2022-09-09T06:27:36;1.97;;;1.20;;
19341;SDS011;9807;48.258;12.690;2022-09-09T06:30:01;3.53;;;0.90;;
19341;SDS011;9807;48.258;12.690;2022-09-09T06:32:31;1.17;;;0.80;;
19341;SDS011;9807;48.258;12.690;2022-09-09T06:34:59;2.70;;;1.33;;
19341;SDS011;9807;48.258;12.690;2022-09-09T06:37:29;3.43;;;1.20;;
19341;SDS011;9807;48.258;12.690;2022-09-09T06:39:57;6.43;;;1.27;;
19341;SDS011;9807;48.258;12.690;2022-09-09T06:42:23;3.00;;;1.33;;
19341;SDS011;9807;48.258;12.690;2022-09-09T06:44:49;3.77;;;1.70;;
19341;SDS011;9807;48.258;12.690;2022-09-09T06:47:14;2.10;;;1.10;;
19341;SDS011;9807;48.258;12.690;2022-09-09T06:49:40;3.23;;;1.40;;
19341;SDS011;9807;48.258;12.690;2022-09-09T06:52:08;1.40;;;1.10;;
19341;SDS011;9807;48.258;12.690;2022-09-09T06:54:34;2.10;;;1.50;;
19341;SDS011;9807;48.258;12.690;2022-09-09T06:57:02;4.17;;;1.43;;
19341;SDS011;9807;48.258;12.690;2022-09-09T06:59:31;5.23;;;1.00;;
19341;SDS011;9807;48.258;12.690;2022-09-09T07:01:59;1.20;;;1.03;;
19341;SDS011;9807;48.258;12.690;2022-09-09T07:04:29;3.60;;;1.10;;
19341;SDS011;9807;48.258;12.690;2022-09-09T07:06:54;1.17;;;1.00;;
19341;SDS011;9807;48.258;12.690;2022-09-09T07:09:20;1.87;;;1.00;;
19341;SDS011;9807;48.258;12.690;2022-09-09T07:11:47;4.00;;;1.50;;
19341;SDS011;9807;48.258;12.690;2022-09-09T07:14:15;1.00;;;0.90;;
19341;SDS011;9807;48.258;12.690;2022-09-09T07:16:42;1.50;;;0.80;;
19341;SDS011;9807;48.258;12.690;2022-09-09T07:19:11;0.87;;;0.80;;
19341;SDS011;9807;48.258;12.690;2022-09-09T07:21:37;0.83;;;0.83;;
19341;SDS011;9807;48.258;12.690;2022-09-09T07:24:05;1.10;;;0.90;;
19341;SDS011;9807;48.258;12.690;2022-09-09T07:26:32;1.70;;;1.00;;
19341;SDS011;9807;48.258;12.690;2022-09-09T07:29:09;1.90;;;0.97;;
19341;SDS011;9807;48.258;12.690;2022-09-09T07:31:40;1.23;;;0.90;;
19341;SDS011;9807;48.258;12.690;2022-09-09T07:34:06;1.40;;;1.00;;
19341;SDS011;9807;48.258;12.690;2022-09-09T07:36:33;0.93;;;0.90;;
19341;SDS011;9807;48.258;12.690;2022-09-09T07:39:08;2.03;;;0.90;;
19341;SDS011;9807;48.258;12.690;2022-09-09T07:41:42;1.03;;;0.93;;
19341;SDS011;9807;48.258;12.690;2022-09-09T07:44:20;4.73;;;1.20;;
19341;SDS011;9807;48.258;12.690;2022-09-09T07:46:47;2.70;;;1.07;;
19341;SDS011;9807;48.258;12.690;2022-09-09T07:49:14;3.43;;;1.60;;
19341;SDS011;9807;48.258;12.690;2022-09-09T07:51:41;7.17;;;1.40;;
19341;SDS011;9807;48.258;12.690;2022-09-09T07:54:12;2.00;;;1.40;;
19341;SDS011;9807;48.258;12.690;2022-09-09T07:56:42;2.97;;;1.17;;
19341;SDS011;9807;48.258;12.690;2022-09-09T07:59:08;3.50;;;1.20;;
19341;SDS011;9807;48.258;12.690;2022-09-09T08:01:39;1.40;;;1.10;;
19341;SDS011;9807;48.258;12.690;2022-09-09T08:04:08;3.43;;;1.47;;
19341;SDS011;9807;48.258;12.690;2022-09-09T08:06:46;2.63;;;1.70;;
19341;SDS011;9807;48.258;12.690;2022-09-09T08:09:20;3.97;;;1.83;;
19341;SDS011;9807;48.258;12.690;2022-09-09T08:11:47;4.67;;;1.80;;
19341;SDS011;9807;48.258;12.690;2022-09-09T08:14:19;3.20;;;1.53;;
19341;SDS011;9807;48.258;12.690;2022-09-09T08:16:48;3.30;;;1.50;;
19341;SDS011;9807;48.258;12.690;2022-09-09T08:19:15;5.57;;;1.77;;
19341;SDS011;9807;48.258;12.690;2022-09-09T08:21:41;1.23;;;1.13;;
19341;SDS011;9807;48.258;12.690;2022-09-09T08:24:08;2.47;;;1.07;;
19341;SDS011;9807;48.258;12.690;2022-09-09T08:26:40;2.10;;;1.03;;
19341;SDS011;9807;48.258;12.690;2022-09-09T08:29:08;2.73;;;1.10;;
19341;SDS011;9807;48.258;12.690;2022-09-09T08:31:39;1.27;;;1.07;;
19341;SDS011;9807;48.258;12.690;2022-09-09T08:34:10;2.90;;;1.53;;
19341;SDS011;9807;48.258;12.690;2022-09-09T08:36:40;1.87;;;1.30;;
19341;SDS011;9807;48.258;12.690;2022-09-09T08:39:08;3.70;;;1.23;;
19341;SDS011;9807;48.258;12.690;2022-09-09T08:41:44;1.60;;;1.30;;
19341;SDS011;9807;48.258;12.690;2022-09-09T08:55:15;5.47;;;1.77;;
19341;SDS011;9807;48.258;12.690;2022-09-09T08:57:58;3.70;;;1.50;;
19341;SDS011;9807;48.258;12.690;2022-09-09T09:00:47;4.17;;;2.00;;
19341;SDS011;9807;48.258;12.690;2022-09-09T09:03:24;4.87;;;2.00;;
19341;SDS011;9807;48.258;12.690;2022-09-09T09:06:17;9.23;;;2.30;;
19341;SDS011;9807;48.258;12.690;2022-09-09T09:11:58;5.13;;;1.90;;
19341;SDS011;9807;48.258;12.690;2022-09-09T09:14:31;3.17;;;2.10;;
19341;SDS011;9807;48.258;12.690;2022-09-09T09:17:01;7.53;;;2.10;;
19341;SDS011;9807;48.258;12.690;2022-09-09T09:19:34;3.77;;;1.93;;
19341;SDS011;9807;48.258;12.690;2022-09-09T09:22:10;4.03;;;2.10;;
19341;SDS011;9807;48.258;12.690;2022-09-09T09:24:54;3.20;;;2.00;;
19341;SDS011;9807;48.258;12.690;2022-09-09T09:29:53;4.40;;;2.20;;
19341;SDS011;9807;48.258;12.690;2022-09-09T09:32:22;3.03;;;1.80;;
19341;SDS011;9807;48.258;12.690;2022-09-09T09:34:51;2.27;;;1.80;;
19341;SDS011;9807;48.258;12.690;2022-09-09T09:37:31;1.77;;;1.40;;
19341;SDS011;9807;48.258;12.690;2022-09-09T09:42:59;5.83;;;2.73;;
19341;SDS011;9807;48.258;12.690;2022-09-09T09:45:31;3.27;;;1.40;;
19341;SDS011;9807;48.258;12.690;2022-09-09T09:48:32;1.80;;;1.03;;
19341;SDS011;9807;48.258;12.690;2022-09-09T09:53:36;2.40;;;1.40;;
19341;SDS011;9807;48.258;12.690;2022-09-09T09:56:07;1.60;;;1.10;;
19341;SDS011;9807;48.258;12.690;2022-09-09T09:58:59;2.03;;;1.10;;
19341;SDS011;9807;48.258;12.690;2022-09-09T10:03:51;5.93;;;2.17;;
19341;SDS011;9807;48.258;12.690;2022-09-09T10:06:33;4.20;;;2.20;;
19341;SDS011;9807;48.258;12.690;2022-09-09T10:22:43;2.03;;;1.07;;
19341;SDS011;9807;48.258;12.690;2022-09-09T10:25:23;2.07;;;1.10;;
19341;SDS011;9807;48.258;12.690;2022-09-09T10:31:19;2.37;;;1.30;;
19341;SDS011;9807;48.258;12.690;2022-09-09T10:36:46;2.13;;;1.33;;
19341;SDS011;9807;48.258;12.690;2022-09-09T10:42:09;15.77;;;4.37;;
19341;SDS011;9807;48.258;12.690;2022-09-09T10:50:24;6.10;;;2.30;;
19341;SDS011;9807;48.258;12.690;2022-09-09T10:53:02;3.80;;;1.40;;
19341;SDS011;9807;48.258;12.690;2022-09-09T10:55:40;9.30;;;3.00;;
19341;SDS011;9807;48.258;12.690;2022-09-09T10:58:19;11.50;;;4.83;;
19341;SDS011;9807;48.258;12.690;2022-09-09T11:00:51;15.70;;;3.70;;
19341;SDS011;9807;48.258;12.690;2022-09-09T11:03:26;10.43;;;3.63;;
19341;SDS011;9807;48.258;12.690;2022-09-09T11:05:57;12.33;;;3.80;;
19341;SDS011;9807;48.258;12.690;2022-09-09T11:08:30;11.40;;;3.57;;
19341;SDS011;9807;48.258;12.690;2022-09-09T11:11:03;5.77;;;3.77;;
19341;SDS011;9807;48.258;12.690;2022-09-09T11:21:57;7.10;;;3.37;;
19341;SDS011;9807;48.258;12.690;2022-09-09T11:24:34;6.53;;;2.87;;
19341;SDS011;9807;48.258;12.690;2022-09-09T11:35:21;4.50;;;1.90;;
19341;SDS011;9807;48.258;12.690;2022-09-09T11:37:55;4.90;;;2.27;;
19341;SDS011;9807;48.258;12.690;2022-09-09T11:40:30;4.17;;;1.60;;
19341;SDS011;9807;48.258;12.690;2022-09-09T11:45:53;6.83;;;3.80;;
19341;SDS011;9807;48.258;12.690;2022-09-09T11:51:11;2.93;;;2.00;;
19341;SDS011;9807;48.258;12.690;2022-09-09T11:54:02;3.47;;;2.00;;
19341;SDS011;9807;48.258;12.690;2022-09-09T11:56:50;6.67;;;2.20;;
19341;SDS011;9807;48.258;12.690;2022-09-09T11:59:23;2.73;;;1.60;;
19341;SDS011;9807;48.258;12.690;2022-09-09T12:02:00;2.40;;;1.53;;
19341;SDS011;9807;48.258;12.690;2022-09-09T12:04:59;2.43;;;1.60;;
19341;SDS011;9807;48.258;12.690;2022-09-09T12:07:32;3.73;;;1.47;;
19341;SDS011;9807;48.258;12.690;2022-09-09T12:10:26;4.40;;;1.80;;
19341;SDS011;9807;48.258;12.690;2022-09-09T12:15:50;8.57;;;2.70;;
19341;SDS011;9807;48.258;12.690;2022-09-09T12:18:21;3.93;;;1.80;;
19341;SDS011;9807;48.258;12.690;2022-09-09T12:20:59;4.90;;;2.00;;
19341;SDS011;9807;48.258;12.690;2022-09-09T12:23:41;4.73;;;2.70;;
19341;SDS011;9807;48.258;12.690;2022-09-09T12:26:25;3.13;;;2.00;;
19341;SDS011;9807;48.258;12.690;2022-09-09T12:29:14;4.50;;;2.20;;
19341;SDS011;9807;48.258;12.690;2022-09-09T12:32:25;7.53;;;2.47;;
19341;SDS011;9807;48.258;12.690;2022-09-09T12:37:42;6.10;;;2.70;;
19341;SDS011;9807;48.258;12.690;2022-09-09T12:40:27;8.80;;;2.90;;
19341;SDS011;9807;48.258;12.690;2022-09-09T12:42:55;4.97;;;2.13;;
19341;SDS011;9807;48.258;12.690;2022-09-09T12:45:24;6.07;;;2.70;;
19341;SDS011;9807;48.258;12.690;2022-09-09T12:50:32;12.13;;;4.30;;
19341;SDS011;9807;48.258;12.690;2022-09-09T12:53:09;8.97;;;3.13;;
19341;SDS011;9807;48.258;12.690;2022-09-09T12:55:48;8.33;;;3.60;;
19341;SDS011;9807;48.258;12.690;2022-09-09T12:58:18;3.93;;;2.60;;
19341;SDS011;9807;48.258;12.690;2022-09-09T13:00:49;5.83;;;2.80;;
19341;SDS011;9807;48.258;12.690;2022-09-09T13:03:18;6.63;;;2.73;;
19341;SDS011;9807;48.258;12.690;2022-09-09T13:05:48;4.97;;;2.10;;
19341;SDS011;9807;48.258;12.690;2022-09-09T13:08:15;3.37;;;2.07;;
19341;SDS011;9807;48.258;12.690;2022-09-09T13:10:55;2.23;;;1.60;;
19341;SDS011;9807;48.258;12.690;2022-09-09T13:13:33;4.07;;;1.60;;
19341;SDS011;9807;48.258;12.690;2022-09-09T13:16:04;6.70;;;2.30;;
19341;SDS011;9807;48.258;12.690;2022-09-09T13:18:41;3.43;;;2.03;;
19341;SDS011;9807;48.258;12.690;2022-09-09T13:21:07;6.27;;;2.20;;
19341;SDS011;9807;48.258;12.690;2022-09-09T13:23:34;2.80;;;1.70;;
19341;SDS011;9807;48.258;12.690;2022-09-09T13:26:02;3.10;;;1.63;;
19341;SDS011;9807;48.258;12.690;2022-09-09T13:28:32;2.83;;;2.40;;
19341;SDS011;9807;48.258;12.690;2022-09-09T13:31:18;4.33;;;2.00;;
19341;SDS011;9807;48.258;12.690;2022-09-09T13:33:49;5.17;;;2.00;;
19341;SDS011;9807;48.258;12.690;2022-09-09T13:36:15;4.47;;;2.03;;
19341;SDS011;9807;48.258;12.690;2022-09-09T13:38:52;5.30;;;2.50;;
19341;SDS011;9807;48.258;12.690;2022-09-09T13:41:24;4.23;;;2.47;;
19341;SDS011;9807;48.258;12.690;2022-09-09T13:44:00;2.63;;;1.60;;
19341;SDS011;9807;48.258;12.690;2022-09-09T13:51:48;3.73;;;1.90;;
19341;SDS011;9807;48.258;12.690;2022-09-09T13:54:16;2.50;;;1.37;;
19341;SDS011;9807;48.258;12.690;2022-09-09T13:56:44;4.23;;;1.73;;
19341;SDS011;9807;48.258;12.690;2022-09-09T13:59:14;4.20;;;1.93;;
19341;SDS011;9807;48.258;12.690;2022-09-09T14:01:49;4.80;;;1.60;;
19341;SDS011;9807;48.258;12.690;2022-09-09T14:04:17;4.07;;;1.23;;
19341;SDS011;9807;48.258;12.690;2022-09-09T14:06:45;4.23;;;1.90;;
19341;SDS011;9807;48.258;12.690;2022-09-09T14:09:17;1.90;;;1.20;;
19341;SDS011;9807;48.258;12.690;2022-09-09T14:11:43;3.50;;;1.50;;
19341;SDS011;9807;48.258;12.690;2022-09-09T14:14:10;3.20;;;1.53;;
19341;SDS011;9807;48.258;12.690;2022-09-09T14:16:36;2.83;;;1.87;;
19341;SDS011;9807;48.258;12.690;2022-09-09T14:19:02;3.17;;;1.10;;
19341;SDS011;9807;48.258;12.690;2022-09-09T14:21:28;4.10;;;1.60;;
19341;SDS011;9807;48.258;12.690;2022-09-09T14:23:54;4.27;;;1.60;;
19341;SDS011;9807;48.258;12.690;2022-09-09T14:26:23;2.50;;;1.43;;
19341;SDS011;9807;48.258;12.690;2022-09-09T14:28:49;3.27;;;1.70;;
19341;SDS011;9807;48.258;12.690;2022-09-09T14:31:16;3.30;;;1.20;;
19341;SDS011;9807;48.258;12.690;2022-09-09T14:33:45;3.57;;;1.60;;
19341;SDS011;9807;48.258;12.690;2022-09-09T14:36:15;3.87;;;1.53;;
19341;SDS011;9807;48.258;12.690;2022-09-09T14:38:45;1.53;;;1.13;;
19341;SDS011;9807;48.258;12.690;2022-09-09T14:41:12;1.13;;;1.00;;
19341;SDS011;9807;48.258;12.690;2022-09-09T14:43:43;3.37;;;1.43;;
19341;SDS011;9807;48.258;12.690;2022-09-09T14:46:14;4.23;;;1.00;;
19341;SDS011;9807;48.258;12.690;2022-09-09T14:48:41;2.40;;;1.13;;
19341;SDS011;9807;48.258;12.690;2022-09-09T14:51:23;4.27;;;1.13;;
19341;SDS011;9807;48.258;12.690;2022-09-09T14:53:55;5.40;;;0.90;;
19341;SDS011;9807;48.258;12.690;2022-09-09T14:56:24;1.97;;;1.00;;
19341;SDS011;9807;48.258;12.690;2022-09-09T14:58:56;2.93;;;1.00;;
19341;SDS011;9807;48.258;12.690;2022-09-09T15:01:24;2.23;;;1.00;;
19341;SDS011;9807;48.258;12.690;2022-09-09T15:04:00;1.67;;;0.90;;
19341;SDS011;9807;48.258;12.690;2022-09-09T15:06:31;3.50;;;1.30;;
19341;SDS011;9807;48.258;12.690;2022-09-09T15:09:02;2.97;;;1.03;;
19341;SDS011;9807;48.258;12.690;2022-09-09T15:11:33;1.00;;;0.90;;
19341;SDS011;9807;48.258;12.690;2022-09-09T15:14:05;1.43;;;0.70;;
19341;SDS011;9807;48.258;12.690;2022-09-09T15:16:32;1.40;;;0.80;;
19341;SDS011;9807;48.258;12.690;2022-09-09T15:18:59;1.33;;;0.93;;
19341;SDS011;9807;48.258;12.690;2022-09-09T15:21:31;1.73;;;0.80;;
19341;SDS011;9807;48.258;12.690;2022-09-09T15:23:58;1.43;;;0.80;;
19341;SDS011;9807;48.258;12.690;2022-09-09T15:26:24;2.20;;;0.98;;
19341;SDS011;9807;48.258;12.690;2022-09-09T15:28:55;1.63;;;1.00;;
19341;SDS011;9807;48.258;12.690;2022-09-09T15:31:21;1.80;;;0.80;;
19341;SDS011;9807;48.258;12.690;2022-09-09T15:33:53;0.80;;;0.80;;
19341;SDS011;9807;48.258;12.690;2022-09-09T15:36:30;1.57;;;1.10;;
19341;SDS011;9807;48.258;12.690;2022-09-09T15:38:58;2.10;;;0.90;;
19341;SDS011;9807;48.258;12.690;2022-09-09T15:41:25;1.23;;;0.93;;
19341;SDS011;9807;48.258;12.690;2022-09-09T15:43:58;2.60;;;1.30;;
19341;SDS011;9807;48.258;12.690;2022-09-09T15:46:26;2.60;;;2.07;;
19341;SDS011;9807;48.258;12.690;2022-09-09T15:51:40;4.53;;;3.00;;
19341;SDS011;9807;48.258;12.690;2022-09-09T15:54:08;7.43;;;5.30;;
19341;SDS011;9807;48.258;12.690;2022-09-09T15:56:35;6.73;;;4.27;;
19341;SDS011;9807;48.258;12.690;2022-09-09T15:59:02;9.00;;;5.10;;
19341;SDS011;9807;48.258;12.690;2022-09-09T16:01:28;2.00;;;1.10;;
19341;SDS011;9807;48.258;12.690;2022-09-09T16:03:57;8.37;;;5.00;;
19341;SDS011;9807;48.258;12.690;2022-09-09T16:06:25;3.97;;;2.10;;
19341;SDS011;9807;48.258;12.690;2022-09-09T16:08:56;6.30;;;4.00;;
19341;SDS011;9807;48.258;12.690;2022-09-09T16:11:24;2.83;;;1.40;;
19341;SDS011;9807;48.258;12.690;2022-09-09T16:13:55;6.97;;;3.03;;
19341;SDS011;9807;48.258;12.690;2022-09-09T16:16:28;3.87;;;2.90;;
19341;SDS011;9807;48.258;12.690;2022-09-09T16:18:56;2.67;;;1.70;;
19341;SDS011;9807;48.258;12.690;2022-09-09T16:21:30;4.17;;;1.60;;
19341;SDS011;9807;48.258;12.690;2022-09-09T16:23:59;4.93;;;2.70;;
19341;SDS011;9807;48.258;12.690;2022-09-09T16:26:26;3.80;;;2.93;;
19341;SDS011;9807;48.258;12.690;2022-09-09T16:28:59;4.90;;;1.60;;
19341;SDS011;9807;48.258;12.690;2022-09-09T16:31:27;3.10;;;1.40;;
19341;SDS011;9807;48.258;12.690;2022-09-09T16:33:54;4.47;;;2.70;;
19341;SDS011;9807;48.258;12.690;2022-09-09T16:36:27;4.30;;;2.57;;
19341;SDS011;9807;48.258;12.690;2022-09-09T16:38:59;5.27;;;1.60;;
19341;SDS011;9807;48.258;12.690;2022-09-09T16:41:29;2.73;;;1.87;;
19341;SDS011;9807;48.258;12.690;2022-09-09T16:44:00;6.60;;;2.17;;
19341;SDS011;9807;48.258;12.690;2022-09-09T16:46:28;3.53;;;2.60;;
19341;SDS011;9807;48.258;12.690;2022-09-09T16:48:56;2.33;;;1.67;;
19341;SDS011;9807;48.258;12.690;2022-09-09T16:51:24;2.93;;;2.13;;
19341;SDS011;9807;48.258;12.690;2022-09-09T16:53:57;2.40;;;1.40;;
19341;SDS011;9807;48.258;12.690;2022-09-09T16:56:24;2.37;;;2.17;;
19341;SDS011;9807;48.258;12.690;2022-09-09T16:58:58;2.83;;;1.97;;
19341;SDS011;9807;48.258;12.690;2022-09-09T17:01:30;2.73;;;2.20;;
19341;SDS011;9807;48.258;12.690;2022-09-09T17:03:58;3.83;;;2.27;;
19341;SDS011;9807;48.258;12.690;2022-09-09T17:06:32;2.73;;;2.10;;
19341;SDS011;9807;48.258;12.690;2022-09-09T17:09:03;2.67;;;2.10;;
19341;SDS011;9807;48.258;12.690;2022-09-09T17:11:31;2.70;;;1.83;;
19341;SDS011;9807;48.258;12.690;2022-09-09T17:14:01;2.67;;;1.90;;
19341;SDS011;9807;48.258;12.690;2022-09-09T17:16:29;2.87;;;1.77;;
19341;SDS011;9807;48.258;12.690;2022-09-09T17:18:58;2.33;;;1.80;;
19341;SDS011;9807;48.258;12.690;2022-09-09T17:21:26;2.60;;;1.90;;
19341;SDS011;9807;48.258;12.690;2022-09-09T17:23:57;2.43;;;2.10;;
19341;SDS011;9807;48.258;12.690;2022-09-09T17:26:24;2.10;;;1.50;;
19341;SDS011;9807;48.258;12.690;2022-09-09T17:28:52;2.20;;;1.60;;
19341;SDS011;9807;48.258;12.690;2022-09-09T17:31:20;2.60;;;1.60;;
19341;SDS011;9807;48.258;12.690;2022-09-09T17:33:46;1.93;;;1.50;;
19341;SDS011;9807;48.258;12.690;2022-09-09T17:36:14;2.97;;;1.40;;
19341;SDS011;9807;48.258;12.690;2022-09-09T17:38:44;1.57;;;1.20;;